Terminal Aerodrome Forecast
Issued by NWS

Home | Current Version | Previous Version | Text Only | Print | Product List | Glossary On
Versions: 1 2 3 4 5 6 7 8 9 10 11 12 13 14 15 16 17 18
000
FTUS43 KIND 300500 RRA
TAFLAF
TAF
KLAF 300552Z 3006/3106 17005KT P6SM SCT050 SCT120 BKN200
     FM301000 18006KT 6SM BR VCSH SCT045 BKN100
     FM301500 21012G20KT P6SM VCTS BKN040CB
     FM302300 23008KT P6SM SCT045 BKN100
     FM310400 22006KT 6SM BR BKN015
      AMD LTD TO CLD VIS AND WIND TIL 301300=

USA.gov is the U.S. government's official web portal to all federal, state and local government web resources and services.